sensor_id;sensor_type;location;lat;lon;timestamp;temperature;humidity
17215;DHT22;8723;51.502;6.918;2023-07-20T00:02:11;18.30;1.00
17215;DHT22;8723;51.502;6.918;2023-07-20T00:04:38;18.30;1.00
17215;DHT22;8723;51.502;6.918;2023-07-20T00:07:05;18.30;1.00
17215;DHT22;8723;51.502;6.918;2023-07-20T00:09:32;18.40;1.00
17215;DHT22;8723;51.502;6.918;2023-07-20T00:11:59;18.30;1.00
17215;DHT22;8723;51.502;6.918;2023-07-20T00:14:27;18.30;1.00
17215;DHT22;8723;51.502;6.918;2023-07-20T00:16:55;18.40;1.00
17215;DHT22;8723;51.502;6.918;2023-07-20T00:19:22;18.40;1.00
17215;DHT22;8723;51.502;6.918;2023-07-20T00:21:49;18.30;1.00
17215;DHT22;8723;51.502;6.918;2023-07-20T00:24:16;18.40;1.00
17215;DHT22;8723;51.502;6.918;2023-07-20T00:26:43;18.40;1.00
17215;DHT22;8723;51.502;6.918;2023-07-20T00:29:10;18.40;1.00
17215;DHT22;8723;51.502;6.918;2023-07-20T00:31:38;18.20;1.00
17215;DHT22;8723;51.502;6.918;2023-07-20T00:34:05;18.20;1.00
17215;DHT22;8723;51.502;6.918;2023-07-20T00:36:32;18.30;1.00
17215;DHT22;8723;51.502;6.918;2023-07-20T00:38:59;18.20;1.00
17215;DHT22;8723;51.502;6.918;2023-07-20T00:41:25;18.20;1.00
17215;DHT22;8723;51.502;6.918;2023-07-20T00:43:54;18.20;1.00
17215;DHT22;8723;51.502;6.918;2023-07-20T00:46:23;18.10;1.00
17215;DHT22;8723;51.502;6.918;2023-07-20T00:48:52;18.20;1.00
17215;DHT22;8723;51.502;6.918;2023-07-20T00:51:19;18.20;1.00
17215;DHT22;8723;51.502;6.918;2023-07-20T00:53:46;18.20;1.00
17215;DHT22;8723;51.502;6.918;2023-07-20T00:56:13;18.30;1.00
17215;DHT22;8723;51.502;6.918;2023-07-20T00:58:41;18.30;1.00
17215;DHT22;8723;51.502;6.918;2023-07-20T01:01:08;18.30;1.00
17215;DHT22;8723;51.502;6.918;2023-07-20T01:03:34;18.30;1.00
17215;DHT22;8723;51.502;6.918;2023-07-20T01:06:09;18.30;1.00
17215;DHT22;8723;51.502;6.918;2023-07-20T01:08:44;18.20;1.00
17215;DHT22;8723;51.502;6.918;2023-07-20T01:11:17;18.30;1.00
17215;DHT22;8723;51.502;6.918;2023-07-20T01:13:49;18.10;1.00
17215;DHT22;8723;51.502;6.918;2023-07-20T01:16:16;18.10;1.00
17215;DHT22;8723;51.502;6.918;2023-07-20T01:18:43;18.10;1.00
17215;DHT22;8723;51.502;6.918;2023-07-20T01:21:17;18.10;1.00
17215;DHT22;8723;51.502;6.918;2023-07-20T01:27:00;18.10;1.00
17215;DHT22;8723;51.502;6.918;2023-07-20T01:29:44;18.10;1.00
17215;DHT22;8723;51.502;6.918;2023-07-20T01:32:17;18.10;1.00
17215;DHT22;8723;51.502;6.918;2023-07-20T01:34:46;18.20;1.00
17215;DHT22;8723;51.502;6.918;2023-07-20T01:37:15;18.20;1.00
17215;DHT22;8723;51.502;6.918;2023-07-20T01:39:42;18.10;1.00
17215;DHT22;8723;51.502;6.918;2023-07-20T01:42:10;18.10;1.00
17215;DHT22;8723;51.502;6.918;2023-07-20T01:44:39;18.10;1.00
17215;DHT22;8723;51.502;6.918;2023-07-20T01:47:07;18.10;1.00
17215;DHT22;8723;51.502;6.918;2023-07-20T01:49:38;18.10;1.00
17215;DHT22;8723;51.502;6.918;2023-07-20T01:52:08;18.20;1.00
17215;DHT22;8723;51.502;6.918;2023-07-20T01:54:38;18.20;1.00
17215;DHT22;8723;51.502;6.918;2023-07-20T01:57:08;18.30;1.00
17215;DHT22;8723;51.502;6.918;2023-07-20T01:59:38;18.30;1.00
17215;DHT22;8723;51.502;6.918;2023-07-20T02:02:08;18.30;1.00
17215;DHT22;8723;51.502;6.918;2023-07-20T02:04:39;18.30;1.00
17215;DHT22;8723;51.502;6.918;2023-07-20T02:07:08;18.10;99.90
17215;DHT22;8723;51.502;6.918;2023-07-20T02:09:36;17.50;99.90
17215;DHT22;8723;51.502;6.918;2023-07-20T02:12:03;17.10;99.90
17215;DHT22;8723;51.502;6.918;2023-07-20T02:14:32;16.80;99.90
17215;DHT22;8723;51.502;6.918;2023-07-20T02:17:01;16.70;99.90
17215;DHT22;8723;51.502;6.918;2023-07-20T02:19:31;16.70;99.90
17215;DHT22;8723;51.502;6.918;2023-07-20T02:22:03;16.40;99.90
17215;DHT22;8723;51.502;6.918;2023-07-20T02:24:31;16.30;99.90
17215;DHT22;8723;51.502;6.918;2023-07-20T02:26:58;16.40;99.90
17215;DHT22;8723;51.502;6.918;2023-07-20T02:29:26;16.30;99.90
17215;DHT22;8723;51.502;6.918;2023-07-20T02:31:56;16.40;99.90
17215;DHT22;8723;51.502;6.918;2023-07-20T02:34:24;16.40;99.90
17215;DHT22;8723;51.502;6.918;2023-07-20T02:36:51;16.40;99.90
17215;DHT22;8723;51.502;6.918;2023-07-20T02:39:19;16.30;99.90
17215;DHT22;8723;51.502;6.918;2023-07-20T02:41:47;16.30;99.90
17215;DHT22;8723;51.502;6.918;2023-07-20T02:44:14;16.20;99.90
17215;DHT22;8723;51.502;6.918;2023-07-20T02:46:41;16.30;99.90
17215;DHT22;8723;51.502;6.918;2023-07-20T02:49:08;16.40;99.90
17215;DHT22;8723;51.502;6.918;2023-07-20T02:51:35;16.40;99.90
17215;DHT22;8723;51.502;6.918;2023-07-20T02:54:01;16.40;99.90
17215;DHT22;8723;51.502;6.918;2023-07-20T02:56:30;16.40;99.90
17215;DHT22;8723;51.502;6.918;2023-07-20T02:58:56;16.40;99.90
17215;DHT22;8723;51.502;6.918;2023-07-20T03:01:24;16.30;99.90
17215;DHT22;8723;51.502;6.918;2023-07-20T03:03:56;16.40;99.90
17215;DHT22;8723;51.502;6.918;2023-07-20T03:06:26;16.30;99.90
17215;DHT22;8723;51.502;6.918;2023-07-20T03:08:55;16.30;99.90
17215;DHT22;8723;51.502;6.918;2023-07-20T03:11:25;16.30;99.90
17215;DHT22;8723;51.502;6.918;2023-07-20T03:13:55;16.20;99.90
17215;DHT22;8723;51.502;6.918;2023-07-20T03:16:23;16.10;99.90
17215;DHT22;8723;51.502;6.918;2023-07-20T03:18:50;16.10;99.90
17215;DHT22;8723;51.502;6.918;2023-07-20T03:21:17;16.00;99.90
17215;DHT22;8723;51.502;6.918;2023-07-20T03:23:44;16.10;99.90
17215;DHT22;8723;51.502;6.918;2023-07-20T03:26:11;16.10;99.90
17215;DHT22;8723;51.502;6.918;2023-07-20T03:28:38;16.10;99.90
17215;DHT22;8723;51.502;6.918;2023-07-20T03:31:06;16.20;99.90
17215;DHT22;8723;51.502;6.918;2023-07-20T03:33:34;16.10;99.90
17215;DHT22;8723;51.502;6.918;2023-07-20T03:36:01;15.90;99.90
17215;DHT22;8723;51.502;6.918;2023-07-20T03:38:28;15.80;99.90
17215;DHT22;8723;51.502;6.918;2023-07-20T03:40:55;15.90;99.90
17215;DHT22;8723;51.502;6.918;2023-07-20T03:43:23;16.00;99.90
17215;DHT22;8723;51.502;6.918;2023-07-20T03:45:49;16.10;99.90
17215;DHT22;8723;51.502;6.918;2023-07-20T03:48:19;16.10;99.90
17215;DHT22;8723;51.502;6.918;2023-07-20T03:50:48;16.10;99.90
17215;DHT22;8723;51.502;6.918;2023-07-20T03:53:16;16.10;99.90
17215;DHT22;8723;51.502;6.918;2023-07-20T03:55:44;16.00;99.90
17215;DHT22;8723;51.502;6.918;2023-07-20T03:58:11;15.90;99.90
17215;DHT22;8723;51.502;6.918;2023-07-20T04:00:38;16.00;99.90
17215;DHT22;8723;51.502;6.918;2023-07-20T04:03:05;16.00;99.90
17215;DHT22;8723;51.502;6.918;2023-07-20T04:05:33;16.00;99.90
17215;DHT22;8723;51.502;6.918;2023-07-20T04:08:00;15.90;99.90
17215;DHT22;8723;51.502;6.918;2023-07-20T04:10:27;16.10;99.90
17215;DHT22;8723;51.502;6.918;2023-07-20T04:12:53;15.80;99.90
17215;DHT22;8723;51.502;6.918;2023-07-20T04:15:20;15.70;99.90
17215;DHT22;8723;51.502;6.918;2023-07-20T04:17:47;15.70;99.90
17215;DHT22;8723;51.502;6.918;2023-07-20T04:20:15;15.60;99.90
17215;DHT22;8723;51.502;6.918;2023-07-20T04:22:44;15.60;99.90
17215;DHT22;8723;51.502;6.918;2023-07-20T04:25:11;15.60;99.90
17215;DHT22;8723;51.502;6.918;2023-07-20T04:27:38;15.60;99.90
17215;DHT22;8723;51.502;6.918;2023-07-20T04:30:07;15.60;99.90
17215;DHT22;8723;51.502;6.918;2023-07-20T04:32:34;15.60;99.90
17215;DHT22;8723;51.502;6.918;2023-07-20T04:35:01;15.60;99.90
17215;DHT22;8723;51.502;6.918;2023-07-20T04:37:28;15.50;99.90
17215;DHT22;8723;51.502;6.918;2023-07-20T04:39:56;15.50;99.90
17215;DHT22;8723;51.502;6.918;2023-07-20T04:42:23;15.50;99.90
17215;DHT22;8723;51.502;6.918;2023-07-20T04:44:50;15.70;99.90
17215;DHT22;8723;51.502;6.918;2023-07-20T04:47:16;15.80;99.90
17215;DHT22;8723;51.502;6.918;2023-07-20T04:49:43;15.70;99.90
17215;DHT22;8723;51.502;6.918;2023-07-20T04:52:10;15.80;99.90
17215;DHT22;8723;51.502;6.918;2023-07-20T04:54:37;15.90;99.90
17215;DHT22;8723;51.502;6.918;2023-07-20T04:57:09;15.90;99.90
17215;DHT22;8723;51.502;6.918;2023-07-20T04:59:36;15.90;99.90
17215;DHT22;8723;51.502;6.918;2023-07-20T05:02:03;15.80;99.90
17215;DHT22;8723;51.502;6.918;2023-07-20T05:04:30;15.80;99.90
17215;DHT22;8723;51.502;6.918;2023-07-20T05:06:56;15.60;99.90
17215;DHT22;8723;51.502;6.918;2023-07-20T05:09:23;15.60;99.90
17215;DHT22;8723;51.502;6.918;2023-07-20T05:11:50;15.70;99.90
17215;DHT22;8723;51.502;6.918;2023-07-20T05:14:18;15.70;99.90
17215;DHT22;8723;51.502;6.918;2023-07-20T05:16:45;15.80;99.90
17215;DHT22;8723;51.502;6.918;2023-07-20T05:19:12;15.90;99.90
17215;DHT22;8723;51.502;6.918;2023-07-20T05:21:38;15.80;99.90
17215;DHT22;8723;51.502;6.918;2023-07-20T05:24:06;15.70;99.90
17215;DHT22;8723;51.502;6.918;2023-07-20T05:26:33;15.60;99.90
17215;DHT22;8723;51.502;6.918;2023-07-20T05:29:00;15.60;99.90
17215;DHT22;8723;51.502;6.918;2023-07-20T05:31:28;15.70;99.90
17215;DHT22;8723;51.502;6.918;2023-07-20T05:33:56;15.80;99.90
17215;DHT22;8723;51.502;6.918;2023-07-20T05:36:25;15.70;99.90
17215;DHT22;8723;51.502;6.918;2023-07-20T05:38:52;15.80;99.90
17215;DHT22;8723;51.502;6.918;2023-07-20T05:41:19;15.80;99.90
17215;DHT22;8723;51.502;6.918;2023-07-20T05:43:46;15.80;99.90
17215;DHT22;8723;51.502;6.918;2023-07-20T05:46:13;15.70;99.90
17215;DHT22;8723;51.502;6.918;2023-07-20T05:48:41;15.60;99.90
17215;DHT22;8723;51.502;6.918;2023-07-20T05:51:08;15.60;99.90
17215;DHT22;8723;51.502;6.918;2023-07-20T05:53:35;15.50;99.90
17215;DHT22;8723;51.502;6.918;2023-07-20T05:56:02;15.50;99.90
17215;DHT22;8723;51.502;6.918;2023-07-20T05:58:29;15.60;99.90
17215;DHT22;8723;51.502;6.918;2023-07-20T06:00:57;15.60;99.90
17215;DHT22;8723;51.502;6.918;2023-07-20T06:03:23;15.60;99.90
17215;DHT22;8723;51.502;6.918;2023-07-20T06:05:51;15.60;99.90
17215;DHT22;8723;51.502;6.918;2023-07-20T06:08:18;15.60;99.90
17215;DHT22;8723;51.502;6.918;2023-07-20T06:10:49;15.60;99.90
17215;DHT22;8723;51.502;6.918;2023-07-20T06:13:17;15.60;99.90
17215;DHT22;8723;51.502;6.918;2023-07-20T06:15:44;15.70;99.90
17215;DHT22;8723;51.502;6.918;2023-07-20T06:18:10;15.80;99.90
17215;DHT22;8723;51.502;6.918;2023-07-20T06:20:37;15.70;99.90
17215;DHT22;8723;51.502;6.918;2023-07-20T06:23:05;15.80;99.90
17215;DHT22;8723;51.502;6.918;2023-07-20T06:25:32;16.00;99.90
17215;DHT22;8723;51.502;6.918;2023-07-20T06:27:59;16.00;99.90
17215;DHT22;8723;51.502;6.918;2023-07-20T06:30:26;15.90;99.90
17215;DHT22;8723;51.502;6.918;2023-07-20T06:32:53;16.00;99.90
17215;DHT22;8723;51.502;6.918;2023-07-20T06:35:19;16.10;99.90
17215;DHT22;8723;51.502;6.918;2023-07-20T06:37:46;15.90;99.90
17215;DHT22;8723;51.502;6.918;2023-07-20T06:40:14;15.80;99.90
17215;DHT22;8723;51.502;6.918;2023-07-20T06:42:41;15.90;99.90
17215;DHT22;8723;51.502;6.918;2023-07-20T06:45:09;15.90;99.90
17215;DHT22;8723;51.502;6.918;2023-07-20T06:47:38;16.00;99.90
17215;DHT22;8723;51.502;6.918;2023-07-20T06:50:05;15.90;99.90
17215;DHT22;8723;51.502;6.918;2023-07-20T06:52:32;15.80;99.90
17215;DHT22;8723;51.502;6.918;2023-07-20T06:54:59;15.90;99.90
17215;DHT22;8723;51.502;6.918;2023-07-20T06:57:27;15.90;99.90
17215;DHT22;8723;51.502;6.918;2023-07-20T06:59:54;16.00;99.90
17215;DHT22;8723;51.502;6.918;2023-07-20T07:02:21;16.00;99.90
17215;DHT22;8723;51.502;6.918;2023-07-20T07:04:48;16.10;99.90
17215;DHT22;8723;51.502;6.918;2023-07-20T07:07:14;16.10;99.90
17215;DHT22;8723;51.502;6.918;2023-07-20T07:09:41;16.20;99.90
17215;DHT22;8723;51.502;6.918;2023-07-20T07:12:08;16.30;99.90
17215;DHT22;8723;51.502;6.918;2023-07-20T07:14:37;16.40;99.90
17215;DHT22;8723;51.502;6.918;2023-07-20T07:17:04;16.80;99.90
17215;DHT22;8723;51.502;6.918;2023-07-20T07:19:31;17.10;99.90
17215;DHT22;8723;51.502;6.918;2023-07-20T07:21:58;17.10;99.90
17215;DHT22;8723;51.502;6.918;2023-07-20T07:24:30;17.20;99.90
17215;DHT22;8723;51.502;6.918;2023-07-20T07:51:33;17.30;99.90
17215;DHT22;8723;51.502;6.918;2023-07-20T07:54:00;17.30;99.90
17215;DHT22;8723;51.502;6.918;2023-07-20T07:56:27;17.20;99.90
17215;DHT22;8723;51.502;6.918;2023-07-20T07:58:54;17.10;99.90
17215;DHT22;8723;51.502;6.918;2023-07-20T08:01:20;17.00;99.90
17215;DHT22;8723;51.502;6.918;2023-07-20T08:03:47;17.10;99.90
17215;DHT22;8723;51.502;6.918;2023-07-20T08:06:15;17.30;99.90
17215;DHT22;8723;51.502;6.918;2023-07-20T08:08:42;17.40;99.90
17215;DHT22;8723;51.502;6.918;2023-07-20T08:11:09;17.50;99.90
17215;DHT22;8723;51.502;6.918;2023-07-20T08:13:36;17.50;99.90
17215;DHT22;8723;51.502;6.918;2023-07-20T08:16:04;17.60;99.90
17215;DHT22;8723;51.502;6.918;2023-07-20T08:18:30;17.90;99.90
17215;DHT22;8723;51.502;6.918;2023-07-20T08:20:57;18.10;99.90
17215;DHT22;8723;51.502;6.918;2023-07-20T08:23:25;18.30;99.90
17215;DHT22;8723;51.502;6.918;2023-07-20T08:25:53;18.60;99.90
17215;DHT22;8723;51.502;6.918;2023-07-20T08:28:19;18.80;99.90
17215;DHT22;8723;51.502;6.918;2023-07-20T08:30:48;19.00;99.90
17215;DHT22;8723;51.502;6.918;2023-07-20T08:33:16;19.20;99.90
17215;DHT22;8723;51.502;6.918;2023-07-20T08:35:43;19.40;1.00
17215;DHT22;8723;51.502;6.918;2023-07-20T08:38:10;19.30;1.00
17215;DHT22;8723;51.502;6.918;2023-07-20T08:40:43;19.30;1.00
17215;DHT22;8723;51.502;6.918;2023-07-20T08:43:12;19.00;1.00
17215;DHT22;8723;51.502;6.918;2023-07-20T08:45:40;18.90;1.00
17215;DHT22;8723;51.502;6.918;2023-07-20T08:48:07;18.90;1.00
17215;DHT22;8723;51.502;6.918;2023-07-20T08:50:35;18.70;1.00
17215;DHT22;8723;51.502;6.918;2023-07-20T08:53:02;18.70;1.00
17215;DHT22;8723;51.502;6.918;2023-07-20T08:55:30;18.80;1.00
17215;DHT22;8723;51.502;6.918;2023-07-20T08:57:59;19.00;1.00
17215;DHT22;8723;51.502;6.918;2023-07-20T09:00:27;19.30;1.00
17215;DHT22;8723;51.502;6.918;2023-07-20T09:02:55;19.60;1.00
17215;DHT22;8723;51.502;6.918;2023-07-20T09:05:23;19.90;1.00
17215;DHT22;8723;51.502;6.918;2023-07-20T09:07:51;19.90;1.00
17215;DHT22;8723;51.502;6.918;2023-07-20T09:10:20;19.70;1.00
17215;DHT22;8723;51.502;6.918;2023-07-20T09:12:47;19.40;1.00
17215;DHT22;8723;51.502;6.918;2023-07-20T09:15:16;19.20;1.00
17215;DHT22;8723;51.502;6.918;2023-07-20T09:17:45;19.20;1.00
17215;DHT22;8723;51.502;6.918;2023-07-20T09:20:14;19.00;1.00
17215;DHT22;8723;51.502;6.918;2023-07-20T09:22:42;19.20;1.00
17215;DHT22;8723;51.502;6.918;2023-07-20T09:25:11;19.50;1.00
17215;DHT22;8723;51.502;6.918;2023-07-20T09:27:41;19.80;1.00
17215;DHT22;8723;51.502;6.918;2023-07-20T09:30:09;20.00;1.00
17215;DHT22;8723;51.502;6.918;2023-07-20T09:32:40;19.90;1.00
17215;DHT22;8723;51.502;6.918;2023-07-20T09:35:13;19.90;1.00
17215;DHT22;8723;51.502;6.918;2023-07-20T09:37:46;19.70;1.00
17215;DHT22;8723;51.502;6.918;2023-07-20T09:40:15;19.50;1.00
17215;DHT22;8723;51.502;6.918;2023-07-20T09:42:42;19.30;1.00
17215;DHT22;8723;51.502;6.918;2023-07-20T09:45:09;19.20;1.00
17215;DHT22;8723;51.502;6.918;2023-07-20T09:47:37;19.20;1.00
17215;DHT22;8723;51.502;6.918;2023-07-20T09:50:06;19.20;1.00
17215;DHT22;8723;51.502;6.918;2023-07-20T09:52:38;19.30;1.00
17215;DHT22;8723;51.502;6.918;2023-07-20T09:55:06;19.60;1.00
17215;DHT22;8723;51.502;6.918;2023-07-20T09:57:34;19.80;1.00
17215;DHT22;8723;51.502;6.918;2023-07-20T10:00:01;20.10;1.00
17215;DHT22;8723;51.502;6.918;2023-07-20T10:02:33;20.20;1.00
17215;DHT22;8723;51.502;6.918;2023-07-20T10:05:03;20.40;1.00
17215;DHT22;8723;51.502;6.918;2023-07-20T10:07:32;20.80;1.00
17215;DHT22;8723;51.502;6.918;2023-07-20T10:10:02;20.80;1.00
17215;DHT22;8723;51.502;6.918;2023-07-20T10:12:31;20.90;1.00
17215;DHT22;8723;51.502;6.918;2023-07-20T10:15:10;21.00;1.00
17215;DHT22;8723;51.502;6.918;2023-07-20T10:17:42;20.80;1.00
17215;DHT22;8723;51.502;6.918;2023-07-20T10:20:16;20.60;1.00
17215;DHT22;8723;51.502;6.918;2023-07-20T10:22:44;20.60;1.00
17215;DHT22;8723;51.502;6.918;2023-07-20T10:25:12;20.80;1.00
17215;DHT22;8723;51.502;6.918;2023-07-20T10:27:40;21.00;1.00
17215;DHT22;8723;51.502;6.918;2023-07-20T10:30:07;21.10;1.00
17215;DHT22;8723;51.502;6.918;2023-07-20T10:32:35;21.20;1.00
17215;DHT22;8723;51.502;6.918;2023-07-20T10:35:12;21.20;1.00
17215;DHT22;8723;51.502;6.918;2023-07-20T10:37:51;21.30;1.00
17215;DHT22;8723;51.502;6.918;2023-07-20T10:40:29;21.40;1.00
17215;DHT22;8723;51.502;6.918;2023-07-20T10:43:00;21.50;1.00
17215;DHT22;8723;51.502;6.918;2023-07-20T10:45:50;21.60;1.00
17215;DHT22;8723;51.502;6.918;2023-07-20T10:48:19;21.60;1.00
17215;DHT22;8723;51.502;6.918;2023-07-20T10:51:08;21.70;1.00
17215;DHT22;8723;51.502;6.918;2023-07-20T10:53:34;21.80;1.00
17215;DHT22;8723;51.502;6.918;2023-07-20T10:56:08;21.90;1.00
17215;DHT22;8723;51.502;6.918;2023-07-20T10:58:35;21.60;1.00
17215;DHT22;8723;51.502;6.918;2023-07-20T11:01:03;21.40;1.00
17215;DHT22;8723;51.502;6.918;2023-07-20T11:03:33;21.30;1.00
17215;DHT22;8723;51.502;6.918;2023-07-20T11:06:30;21.40;1.00
17215;DHT22;8723;51.502;6.918;2023-07-20T11:09:08;21.30;1.00
17215;DHT22;8723;51.502;6.918;2023-07-20T11:11:37;21.20;1.00
17215;DHT22;8723;51.502;6.918;2023-07-20T11:14:06;21.20;1.00
17215;DHT22;8723;51.502;6.918;2023-07-20T11:16:41;21.20;1.00
17215;DHT22;8723;51.502;6.918;2023-07-20T11:19:16;21.10;1.00
17215;DHT22;8723;51.502;6.918;2023-07-20T11:21:44;21.00;1.00
17215;DHT22;8723;51.502;6.918;2023-07-20T11:24:12;21.00;1.00
17215;DHT22;8723;51.502;6.918;2023-07-20T11:26:43;21.00;1.00
17215;DHT22;8723;51.502;6.918;2023-07-20T11:29:11;21.20;1.00
17215;DHT22;8723;51.502;6.918;2023-07-20T11:31:38;21.50;1.00
17215;DHT22;8723;51.502;6.918;2023-07-20T11:34:06;21.80;1.00
17215;DHT22;8723;51.502;6.918;2023-07-20T11:36:33;22.00;1.00
17215;DHT22;8723;51.502;6.918;2023-07-20T11:39:00;22.00;1.00
17215;DHT22;8723;51.502;6.918;2023-07-20T11:41:31;21.90;1.00
17215;DHT22;8723;51.502;6.918;2023-07-20T11:43:59;22.00;1.00
17215;DHT22;8723;51.502;6.918;2023-07-20T11:46:27;22.10;1.00
17215;DHT22;8723;51.502;6.918;2023-07-20T11:48:57;22.00;1.00
17215;DHT22;8723;51.502;6.918;2023-07-20T11:51:26;22.10;1.00
17215;DHT22;8723;51.502;6.918;2023-07-20T11:53:54;22.30;1.00
17215;DHT22;8723;51.502;6.918;2023-07-20T11:56:22;22.40;1.00
17215;DHT22;8723;51.502;6.918;2023-07-20T11:58:54;22.60;1.00
17215;DHT22;8723;51.502;6.918;2023-07-20T12:01:21;22.70;1.00
17215;DHT22;8723;51.502;6.918;2023-07-20T12:03:49;22.80;1.00
17215;DHT22;8723;51.502;6.918;2023-07-20T12:06:16;22.80;1.00
17215;DHT22;8723;51.502;6.918;2023-07-20T12:08:44;22.70;1.00
17215;DHT22;8723;51.502;6.918;2023-07-20T12:11:10;22.60;1.00
17215;DHT22;8723;51.502;6.918;2023-07-20T12:13:38;22.70;1.00
17215;DHT22;8723;51.502;6.918;2023-07-20T12:16:14;22.80;1.00
17215;DHT22;8723;51.502;6.918;2023-07-20T12:18:42;22.90;1.00
17215;DHT22;8723;51.502;6.918;2023-07-20T12:21:10;22.70;1.00
17215;DHT22;8723;51.502;6.918;2023-07-20T12:23:38;22.60;1.00
17215;DHT22;8723;51.502;6.918;2023-07-20T12:26:09;22.50;1.00
17215;DHT22;8723;51.502;6.918;2023-07-20T12:28:39;22.30;1.00
17215;DHT22;8723;51.502;6.918;2023-07-20T12:31:07;22.30;1.00
17215;DHT22;8723;51.502;6.918;2023-07-20T12:33:36;22.20;1.00
17215;DHT22;8723;51.502;6.918;2023-07-20T12:36:04;22.20;1.00
17215;DHT22;8723;51.502;6.918;2023-07-20T12:38:31;22.20;1.00
17215;DHT22;8723;51.502;6.918;2023-07-20T12:41:01;22.10;1.00
17215;DHT22;8723;51.502;6.918;2023-07-20T12:43:28;22.20;1.00
17215;DHT22;8723;51.502;6.918;2023-07-20T12:45:55;22.40;1.00
17215;DHT22;8723;51.502;6.918;2023-07-20T12:48:22;22.50;1.00
17215;DHT22;8723;51.502;6.918;2023-07-20T12:50:50;22.60;1.00
17215;DHT22;8723;51.502;6.918;2023-07-20T12:53:17;22.70;1.00
17215;DHT22;8723;51.502;6.918;2023-07-20T12:55:44;22.90;1.00
17215;DHT22;8723;51.502;6.918;2023-07-20T12:58:12;23.20;1.00
17215;DHT22;8723;51.502;6.918;2023-07-20T13:00:39;23.30;1.00
17215;DHT22;8723;51.502;6.918;2023-07-20T13:03:06;23.50;1.00
17215;DHT22;8723;51.502;6.918;2023-07-20T13:05:34;23.70;1.00
17215;DHT22;8723;51.502;6.918;2023-07-20T13:08:02;23.80;1.00
17215;DHT22;8723;51.502;6.918;2023-07-20T13:10:31;24.10;1.00
17215;DHT22;8723;51.502;6.918;2023-07-20T13:12:57;24.30;1.00
17215;DHT22;8723;51.502;6.918;2023-07-20T13:15:30;24.50;1.00
17215;DHT22;8723;51.502;6.918;2023-07-20T13:17:57;24.40;1.00
17215;DHT22;8723;51.502;6.918;2023-07-20T13:20:25;24.10;1.00
17215;DHT22;8723;51.502;6.918;2023-07-20T13:22:53;23.90;1.00
17215;DHT22;8723;51.502;6.918;2023-07-20T13:25:21;23.70;1.00
17215;DHT22;8723;51.502;6.918;2023-07-20T13:27:48;23.50;1.00
17215;DHT22;8723;51.502;6.918;2023-07-20T13:30:15;23.30;1.00
17215;DHT22;8723;51.502;6.918;2023-07-20T13:32:43;23.20;1.00
17215;DHT22;8723;51.502;6.918;2023-07-20T13:35:10;23.30;1.00
17215;DHT22;8723;51.502;6.918;2023-07-20T13:37:37;23.70;1.00
17215;DHT22;8723;51.502;6.918;2023-07-20T13:40:05;24.20;1.00
17215;DHT22;8723;51.502;6.918;2023-07-20T13:42:33;24.90;1.00
17215;DHT22;8723;51.502;6.918;2023-07-20T13:45:00;25.30;1.00
17215;DHT22;8723;51.502;6.918;2023-07-20T13:47:27;25.50;1.00
17215;DHT22;8723;51.502;6.918;2023-07-20T13:49:54;25.40;1.00
17215;DHT22;8723;51.502;6.918;2023-07-20T13:52:21;24.70;1.00
17215;DHT22;8723;51.502;6.918;2023-07-20T13:54:48;24.30;1.00
17215;DHT22;8723;51.502;6.918;2023-07-20T13:57:15;24.10;1.00
17215;DHT22;8723;51.502;6.918;2023-07-20T13:59:43;24.00;1.00
17215;DHT22;8723;51.502;6.918;2023-07-20T14:02:10;24.00;1.00
17215;DHT22;8723;51.502;6.918;2023-07-20T14:04:38;23.80;1.00
17215;DHT22;8723;51.502;6.918;2023-07-20T14:07:05;23.70;1.00
17215;DHT22;8723;51.502;6.918;2023-07-20T14:09:32;23.90;1.00
17215;DHT22;8723;51.502;6.918;2023-07-20T14:11:59;23.90;1.00
17215;DHT22;8723;51.502;6.918;2023-07-20T14:14:26;23.80;1.00
17215;DHT22;8723;51.502;6.918;2023-07-20T14:16:54;23.80;1.00
17215;DHT22;8723;51.502;6.918;2023-07-20T14:19:21;23.90;1.00
17215;DHT22;8723;51.502;6.918;2023-07-20T14:21:48;24.00;1.00
17215;DHT22;8723;51.502;6.918;2023-07-20T14:24:17;23.90;1.00
17215;DHT22;8723;51.502;6.918;2023-07-20T14:26:44;23.70;1.00
17215;DHT22;8723;51.502;6.918;2023-07-20T14:29:11;23.40;1.00
17215;DHT22;8723;51.502;6.918;2023-07-20T14:31:38;23.30;1.00
17215;DHT22;8723;51.502;6.918;2023-07-20T14:34:06;23.30;1.00
17215;DHT22;8723;51.502;6.918;2023-07-20T14:36:33;23.30;1.00
17215;DHT22;8723;51.502;6.918;2023-07-20T14:39:00;23.20;1.00
17215;DHT22;8723;51.502;6.918;2023-07-20T14:41:26;23.20;1.00
17215;DHT22;8723;51.502;6.918;2023-07-20T14:43:53;23.20;1.00
17215;DHT22;8723;51.502;6.918;2023-07-20T14:46:20;23.30;1.00
17215;DHT22;8723;51.502;6.918;2023-07-20T14:48:47;23.30;1.00
17215;DHT22;8723;51.502;6.918;2023-07-20T14:51:15;23.40;1.00
17215;DHT22;8723;51.502;6.918;2023-07-20T14:53:42;23.50;1.00
17215;DHT22;8723;51.502;6.918;2023-07-20T14:56:09;23.60;1.00
17215;DHT22;8723;51.502;6.918;2023-07-20T14:58:36;23.60;1.00
17215;DHT22;8723;51.502;6.918;2023-07-20T15:01:02;23.50;1.00
17215;DHT22;8723;51.502;6.918;2023-07-20T15:03:29;23.50;1.00
17215;DHT22;8723;51.502;6.918;2023-07-20T15:05:57;23.30;1.00
17215;DHT22;8723;51.502;6.918;2023-07-20T15:08:25;23.20;1.00
17215;DHT22;8723;51.502;6.918;2023-07-20T15:10:52;23.20;1.00
17215;DHT22;8723;51.502;6.918;2023-07-20T15:13:18;23.30;1.00
17215;DHT22;8723;51.502;6.918;2023-07-20T15:15:45;23.30;1.00
17215;DHT22;8723;51.502;6.918;2023-07-20T15:18:12;23.20;1.00
17215;DHT22;8723;51.502;6.918;2023-07-20T15:20:39;23.00;1.00
17215;DHT22;8723;51.502;6.918;2023-07-20T15:23:05;23.00;1.00
17215;DHT22;8723;51.502;6.918;2023-07-20T15:25:33;23.00;1.00
17215;DHT22;8723;51.502;6.918;2023-07-20T15:28:00;23.00;1.00
17215;DHT22;8723;51.502;6.918;2023-07-20T15:30:27;23.10;1.00
17215;DHT22;8723;51.502;6.918;2023-07-20T15:32:54;23.20;1.00
17215;DHT22;8723;51.502;6.918;2023-07-20T15:35:22;23.30;1.00
17215;DHT22;8723;51.502;6.918;2023-07-20T15:37:49;23.30;1.00
17215;DHT22;8723;51.502;6.918;2023-07-20T15:40:16;23.30;1.00
17215;DHT22;8723;51.502;6.918;2023-07-20T15:42:44;23.30;1.00
17215;DHT22;8723;51.502;6.918;2023-07-20T15:45:11;23.20;1.00
17215;DHT22;8723;51.502;6.918;2023-07-20T15:47:38;23.20;1.00
17215;DHT22;8723;51.502;6.918;2023-07-20T15:50:06;23.10;1.00
17215;DHT22;8723;51.502;6.918;2023-07-20T15:52:33;23.20;1.00
17215;DHT22;8723;51.502;6.918;2023-07-20T15:54:59;23.20;1.00
17215;DHT22;8723;51.502;6.918;2023-07-20T15:57:26;23.20;1.00
17215;DHT22;8723;51.502;6.918;2023-07-20T15:59:54;23.30;1.00
17215;DHT22;8723;51.502;6.918;2023-07-20T16:02:21;23.40;1.00
17215;DHT22;8723;51.502;6.918;2023-07-20T16:04:48;23.40;1.00
17215;DHT22;8723;51.502;6.918;2023-07-20T16:07:15;23.30;1.00
17215;DHT22;8723;51.502;6.918;2023-07-20T16:09:41;23.30;1.00
17215;DHT22;8723;51.502;6.918;2023-07-20T16:12:09;23.10;1.00
17215;DHT22;8723;51.502;6.918;2023-07-20T16:14:36;22.90;1.00
17215;DHT22;8723;51.502;6.918;2023-07-20T16:17:05;22.80;1.00
17215;DHT22;8723;51.502;6.918;2023-07-20T16:19:32;22.70;1.00
17215;DHT22;8723;51.502;6.918;2023-07-20T16:21:58;22.50;1.00
17215;DHT22;8723;51.502;6.918;2023-07-20T16:24:25;22.50;1.00
17215;DHT22;8723;51.502;6.918;2023-07-20T16:26:52;22.40;1.00
17215;DHT22;8723;51.502;6.918;2023-07-20T16:29:19;22.30;1.00